sensor_id;sensor_type;location;lat;lon;timestamp;P1;durP1;ratioP1;P2;durP2;ratioP2
32625;SDS011;19038;50.922;11.880;2022-08-01T00:02:21;5.73;;;5.33;;
32625;SDS011;19038;50.922;11.880;2022-08-01T00:07:20;5.80;;;5.30;;
32625;SDS011;19038;50.922;11.880;2022-08-01T00:12:20;6.40;;;5.90;;
32625;SDS011;19038;50.922;11.880;2022-08-01T00:17:20;6.20;;;5.70;;
32625;SDS011;19038;50.922;11.880;2022-08-01T00:22:20;6.53;;;6.10;;
32625;SDS011;19038;50.922;11.880;2022-08-01T00:27:20;7.03;;;6.53;;
32625;SDS011;19038;50.922;11.880;2022-08-01T00:32:21;6.37;;;5.97;;
32625;SDS011;19038;50.922;11.880;2022-08-01T00:37:20;6.27;;;5.77;;
32625;SDS011;19038;50.922;11.880;2022-08-01T00:42:20;6.80;;;6.00;;
32625;SDS011;19038;50.922;11.880;2022-08-01T00:47:20;6.60;;;6.10;;
32625;SDS011;19038;50.922;11.880;2022-08-01T00:52:20;6.20;;;5.80;;
32625;SDS011;19038;50.922;11.880;2022-08-01T00:57:21;7.03;;;6.53;;
32625;SDS011;19038;50.922;11.880;2022-08-01T01:02:20;7.03;;;6.53;;
32625;SDS011;19038;50.922;11.880;2022-08-01T01:07:34;7.17;;;6.53;;
32625;SDS011;19038;50.922;11.880;2022-08-01T01:12:24;7.07;;;6.53;;
32625;SDS011;19038;50.922;11.880;2022-08-01T01:17:23;7.53;;;6.93;;
32625;SDS011;19038;50.922;11.880;2022-08-01T01:22:24;7.63;;;7.13;;
32625;SDS011;19038;50.922;11.880;2022-08-01T01:27:26;8.00;;;6.73;;
32625;SDS011;19038;50.922;11.880;2022-08-01T01:32:23;7.20;;;6.70;;
32625;SDS011;19038;50.922;11.880;2022-08-01T01:37:21;7.70;;;7.00;;
32625;SDS011;19038;50.922;11.880;2022-08-01T01:42:21;7.87;;;7.23;;
32625;SDS011;19038;50.922;11.880;2022-08-01T01:47:20;8.50;;;7.70;;
32625;SDS011;19038;50.922;11.880;2022-08-01T01:52:20;8.30;;;7.60;;
32625;SDS011;19038;50.922;11.880;2022-08-01T01:57:21;8.47;;;7.77;;
32625;SDS011;19038;50.922;11.880;2022-08-01T02:02:21;8.23;;;7.63;;
32625;SDS011;19038;50.922;11.880;2022-08-01T02:07:21;8.10;;;7.50;;
32625;SDS011;19038;50.922;11.880;2022-08-01T02:12:21;7.73;;;7.23;;
32625;SDS011;19038;50.922;11.880;2022-08-01T02:17:21;7.73;;;7.13;;
32625;SDS011;19038;50.922;11.880;2022-08-01T02:22:24;8.20;;;7.60;;
32625;SDS011;19038;50.922;11.880;2022-08-01T02:27:23;7.83;;;7.27;;
32625;SDS011;19038;50.922;11.880;2022-08-01T02:32:23;8.60;;;7.80;;
32625;SDS011;19038;50.922;11.880;2022-08-01T02:37:21;7.90;;;7.40;;
32625;SDS011;19038;50.922;11.880;2022-08-01T02:42:21;6.23;;;5.83;;
32625;SDS011;19038;50.922;11.880;2022-08-01T02:47:21;5.67;;;5.30;;
32625;SDS011;19038;50.922;11.880;2022-08-01T02:52:21;4.90;;;4.50;;
32625;SDS011;19038;50.922;11.880;2022-08-01T02:57:21;4.77;;;4.40;;
32625;SDS011;19038;50.922;11.880;2022-08-01T03:02:20;4.80;;;4.40;;
32625;SDS011;19038;50.922;11.880;2022-08-01T03:07:21;4.43;;;4.03;;
32625;SDS011;19038;50.922;11.880;2022-08-01T03:12:22;4.63;;;4.23;;
32625;SDS011;19038;50.922;11.880;2022-08-01T03:17:21;4.10;;;3.80;;
32625;SDS011;19038;50.922;11.880;2022-08-01T03:22:22;3.60;;;3.40;;
32625;SDS011;19038;50.922;11.880;2022-08-01T03:27:21;3.73;;;3.43;;
32625;SDS011;19038;50.922;11.880;2022-08-01T03:32:21;3.33;;;3.13;;
32625;SDS011;19038;50.922;11.880;2022-08-01T03:37:23;3.73;;;3.40;;
32625;SDS011;19038;50.922;11.880;2022-08-01T03:42:23;3.60;;;3.30;;
32625;SDS011;19038;50.922;11.880;2022-08-01T03:47:21;3.60;;;3.30;;
32625;SDS011;19038;50.922;11.880;2022-08-01T03:52:21;3.07;;;2.87;;
32625;SDS011;19038;50.922;11.880;2022-08-01T03:57:21;3.00;;;2.80;;
32625;SDS011;19038;50.922;11.880;2022-08-01T04:02:21;2.93;;;2.73;;
32625;SDS011;19038;50.922;11.880;2022-08-01T04:07:22;2.80;;;2.60;;
32625;SDS011;19038;50.922;11.880;2022-08-01T04:12:21;2.80;;;2.60;;
32625;SDS011;19038;50.922;11.880;2022-08-01T04:17:21;2.20;;;2.10;;
32625;SDS011;19038;50.922;11.880;2022-08-01T04:22:21;2.73;;;2.53;;
32625;SDS011;19038;50.922;11.880;2022-08-01T04:27:22;3.30;;;3.00;;
32625;SDS011;19038;50.922;11.880;2022-08-01T04:32:21;4.27;;;2.90;;
32625;SDS011;19038;50.922;11.880;2022-08-01T04:37:21;2.93;;;2.73;;
32625;SDS011;19038;50.922;11.880;2022-08-01T04:42:21;2.90;;;2.70;;
32625;SDS011;19038;50.922;11.880;2022-08-01T04:47:21;2.87;;;2.67;;
32625;SDS011;19038;50.922;11.880;2022-08-01T04:52:21;2.73;;;2.53;;
32625;SDS011;19038;50.922;11.880;2022-08-01T04:57:21;2.57;;;2.40;;
32625;SDS011;19038;50.922;11.880;2022-08-01T05:02:21;2.67;;;2.50;;
32625;SDS011;19038;50.922;11.880;2022-08-01T05:07:21;2.70;;;2.50;;
32625;SDS011;19038;50.922;11.880;2022-08-01T05:12:21;2.60;;;2.40;;
32625;SDS011;19038;50.922;11.880;2022-08-01T05:17:21;3.03;;;2.83;;
32625;SDS011;19038;50.922;11.880;2022-08-01T05:24:02;2.73;;;2.60;;
32625;SDS011;19038;50.922;11.880;2022-08-01T05:28:59;3.67;;;3.23;;
32625;SDS011;19038;50.922;11.880;2022-08-01T05:34:01;3.50;;;3.20;;
32625;SDS011;19038;50.922;11.880;2022-08-01T05:38:59;3.20;;;3.00;;
32625;SDS011;19038;50.922;11.880;2022-08-01T05:43:59;3.57;;;3.27;;
32625;SDS011;19038;50.922;11.880;2022-08-01T05:48:59;3.67;;;3.37;;
32625;SDS011;19038;50.922;11.880;2022-08-01T05:53:59;4.00;;;3.37;;
32625;SDS011;19038;50.922;11.880;2022-08-01T05:58:59;3.23;;;2.93;;
32625;SDS011;19038;50.922;11.880;2022-08-01T06:03:59;4.03;;;3.70;;
32625;SDS011;19038;50.922;11.880;2022-08-01T06:08:59;3.53;;;3.23;;
32625;SDS011;19038;50.922;11.880;2022-08-01T06:13:59;3.43;;;3.20;;
32625;SDS011;19038;50.922;11.880;2022-08-01T06:18:59;4.33;;;2.90;;
32625;SDS011;19038;50.922;11.880;2022-08-01T06:23:59;3.60;;;3.30;;
32625;SDS011;19038;50.922;11.880;2022-08-01T06:28:59;3.40;;;3.10;;
32625;SDS011;19038;50.922;11.880;2022-08-01T06:33:59;4.30;;;2.83;;
32625;SDS011;19038;50.922;11.880;2022-08-01T06:38:59;3.20;;;2.90;;
32625;SDS011;19038;50.922;11.880;2022-08-01T06:43:59;4.00;;;3.60;;
32625;SDS011;19038;50.922;11.880;2022-08-01T06:48:59;3.00;;;2.80;;
32625;SDS011;19038;50.922;11.880;2022-08-01T06:53:59;2.63;;;2.43;;
32625;SDS011;19038;50.922;11.880;2022-08-01T06:58:59;2.90;;;2.70;;
32625;SDS011;19038;50.922;11.880;2022-08-01T07:03:59;4.67;;;2.80;;
32625;SDS011;19038;50.922;11.880;2022-08-01T07:08:59;2.83;;;2.63;;
32625;SDS011;19038;50.922;11.880;2022-08-01T07:13:59;3.10;;;2.90;;
32625;SDS011;19038;50.922;11.880;2022-08-01T07:18:59;3.30;;;3.00;;
32625;SDS011;19038;50.922;11.880;2022-08-01T07:23:59;2.83;;;2.63;;
32625;SDS011;19038;50.922;11.880;2022-08-01T07:28:59;2.30;;;2.20;;
32625;SDS011;19038;50.922;11.880;2022-08-01T07:33:59;1.83;;;1.40;;
32625;SDS011;19038;50.922;11.880;2022-08-01T07:38:59;2.00;;;1.50;;
32625;SDS011;19038;50.922;11.880;2022-08-01T07:43:59;1.90;;;1.33;;
32625;SDS011;19038;50.922;11.880;2022-08-01T07:48:59;1.33;;;1.23;;
32625;SDS011;19038;50.922;11.880;2022-08-01T07:53:59;3.13;;;1.73;;
32625;SDS011;19038;50.922;11.880;2022-08-01T07:58:59;1.27;;;1.17;;
32625;SDS011;19038;50.922;11.880;2022-08-01T08:03:59;1.50;;;1.20;;
32625;SDS011;19038;50.922;11.880;2022-08-01T08:08:59;1.33;;;1.23;;
32625;SDS011;19038;50.922;11.880;2022-08-01T08:13:59;1.47;;;1.37;;
32625;SDS011;19038;50.922;11.880;2022-08-01T08:18:59;1.50;;;1.40;;
32625;SDS011;19038;50.922;11.880;2022-08-01T08:23:59;1.47;;;1.30;;
32625;SDS011;19038;50.922;11.880;2022-08-01T08:28:59;2.30;;;1.50;;
32625;SDS011;19038;50.922;11.880;2022-08-01T08:33:59;1.73;;;1.30;;
32625;SDS011;19038;50.922;11.880;2022-08-01T08:38:59;1.67;;;1.57;;
32625;SDS011;19038;50.922;11.880;2022-08-01T08:44:01;1.50;;;1.40;;
32625;SDS011;19038;50.922;11.880;2022-08-01T08:49:00;1.47;;;1.37;;
32625;SDS011;19038;50.922;11.880;2022-08-01T08:53:59;1.60;;;1.50;;
32625;SDS011;19038;50.922;11.880;2022-08-01T08:59:00;2.07;;;1.50;;
32625;SDS011;19038;50.922;11.880;2022-08-01T09:03:59;1.57;;;1.47;;
32625;SDS011;19038;50.922;11.880;2022-08-01T09:08:59;1.40;;;1.30;;
32625;SDS011;19038;50.922;11.880;2022-08-01T09:14:01;1.50;;;1.40;;
32625;SDS011;19038;50.922;11.880;2022-08-01T09:23:59;1.30;;;1.20;;
32625;SDS011;19038;50.922;11.880;2022-08-01T09:29:00;2.53;;;1.10;;
32625;SDS011;19038;50.922;11.880;2022-08-01T09:34:00;1.00;;;1.00;;
32625;SDS011;19038;50.922;11.880;2022-08-01T09:39:04;1.33;;;1.03;;
32625;SDS011;19038;50.922;11.880;2022-08-01T09:43:59;0.87;;;0.83;;
32625;SDS011;19038;50.922;11.880;2022-08-01T09:49:02;2.23;;;1.10;;
32625;SDS011;19038;50.922;11.880;2022-08-01T09:54:00;1.30;;;1.20;;
32625;SDS011;19038;50.922;11.880;2022-08-01T09:58:59;1.27;;;1.00;;
32625;SDS011;19038;50.922;11.880;2022-08-01T10:08:59;1.13;;;0.90;;
32625;SDS011;19038;50.922;11.880;2022-08-01T10:13:59;0.70;;;0.70;;
32625;SDS011;19038;50.922;11.880;2022-08-01T10:18:59;1.03;;;0.70;;
32625;SDS011;19038;50.922;11.880;2022-08-01T10:23:59;0.80;;;0.80;;
32625;SDS011;19038;50.922;11.880;2022-08-01T10:28:59;0.83;;;0.60;;
32625;SDS011;19038;50.922;11.880;2022-08-01T10:33:59;0.80;;;0.40;;
32625;SDS011;19038;50.922;11.880;2022-08-01T10:38:59;1.20;;;0.77;;
32625;SDS011;19038;50.922;11.880;2022-08-01T10:44:00;1.00;;;0.70;;
32625;SDS011;19038;50.922;11.880;2022-08-01T10:49:02;0.73;;;0.73;;
32625;SDS011;19038;50.922;11.880;2022-08-01T10:53:59;2.80;;;0.70;;
32625;SDS011;19038;50.922;11.880;2022-08-01T10:59:01;0.80;;;0.60;;
32625;SDS011;19038;50.922;11.880;2022-08-01T11:04:03;0.60;;;0.60;;
32625;SDS011;19038;50.922;11.880;2022-08-01T11:09:05;0.60;;;0.60;;
32625;SDS011;19038;50.922;11.880;2022-08-01T11:14:00;0.97;;;0.80;;
32625;SDS011;19038;50.922;11.880;2022-08-01T11:19:00;0.80;;;0.80;;
32625;SDS011;19038;50.922;11.880;2022-08-01T11:23:59;1.00;;;0.90;;
32625;SDS011;19038;50.922;11.880;2022-08-01T11:33:59;1.00;;;0.90;;
32625;SDS011;19038;50.922;11.880;2022-08-01T11:44:00;0.67;;;0.67;;
32625;SDS011;19038;50.922;11.880;2022-08-01T11:53:59;1.10;;;0.50;;
32625;SDS011;19038;50.922;11.880;2022-08-01T11:58:59;0.50;;;0.43;;
32625;SDS011;19038;50.922;11.880;2022-08-01T12:03:59;1.63;;;0.57;;
32625;SDS011;19038;50.922;11.880;2022-08-01T12:13:59;0.50;;;0.50;;
32625;SDS011;19038;50.922;11.880;2022-08-01T12:18:59;0.60;;;0.60;;
32625;SDS011;19038;50.922;11.880;2022-08-01T12:24:00;0.70;;;0.70;;
32625;SDS011;19038;50.922;11.880;2022-08-01T12:28:59;0.90;;;0.60;;
32625;SDS011;19038;50.922;11.880;2022-08-01T12:34:24;1.07;;;0.80;;
32625;SDS011;19038;50.922;11.880;2022-08-01T12:38:59;1.90;;;0.67;;
32625;SDS011;19038;50.922;11.880;2022-08-01T12:43:59;0.70;;;0.60;;
32625;SDS011;19038;50.922;11.880;2022-08-01T12:48:59;0.60;;;0.60;;
32625;SDS011;19038;50.922;11.880;2022-08-01T12:53:59;1.00;;;0.70;;
32625;SDS011;19038;50.922;11.880;2022-08-01T12:58:59;0.60;;;0.60;;
32625;SDS011;19038;50.922;11.880;2022-08-01T13:04:00;0.70;;;0.70;;
32625;SDS011;19038;50.922;11.880;2022-08-01T13:13:59;0.53;;;0.40;;
32625;SDS011;19038;50.922;11.880;2022-08-01T13:18:59;0.50;;;0.40;;
32625;SDS011;19038;50.922;11.880;2022-08-01T13:24:00;1.13;;;0.60;;
32625;SDS011;19038;50.922;11.880;2022-08-01T13:34:00;0.70;;;0.60;;
32625;SDS011;19038;50.922;11.880;2022-08-01T13:38:59;1.13;;;0.60;;
32625;SDS011;19038;50.922;11.880;2022-08-01T13:43:59;1.00;;;0.60;;
32625;SDS011;19038;50.922;11.880;2022-08-01T13:48:59;1.73;;;0.50;;
32625;SDS011;19038;50.922;11.880;2022-08-01T13:53:59;1.10;;;0.70;;
32625;SDS011;19038;50.922;11.880;2022-08-01T13:58:59;1.73;;;0.50;;
32625;SDS011;19038;50.922;11.880;2022-08-01T14:03:59;2.47;;;1.17;;
32625;SDS011;19038;50.922;11.880;2022-08-01T14:08:59;0.97;;;0.50;;
32625;SDS011;19038;50.922;11.880;2022-08-01T14:13:59;0.83;;;0.60;;
32625;SDS011;19038;50.922;11.880;2022-08-01T14:18:59;0.50;;;0.43;;
32625;SDS011;19038;50.922;11.880;2022-08-01T14:23:59;0.60;;;0.60;;
32625;SDS011;19038;50.922;11.880;2022-08-01T14:28:59;1.73;;;0.50;;
32625;SDS011;19038;50.922;11.880;2022-08-01T14:33:59;0.60;;;0.50;;
32625;SDS011;19038;50.922;11.880;2022-08-01T14:38:59;2.10;;;0.43;;
32625;SDS011;19038;50.922;11.880;2022-08-01T14:43:59;0.50;;;0.50;;
32625;SDS011;19038;50.922;11.880;2022-08-01T14:48:59;1.13;;;0.57;;
32625;SDS011;19038;50.922;11.880;2022-08-01T14:53:59;0.60;;;0.50;;
32625;SDS011;19038;50.922;11.880;2022-08-01T14:58:59;2.70;;;1.20;;
32625;SDS011;19038;50.922;11.880;2022-08-01T15:03:59;2.10;;;1.50;;
32625;SDS011;19038;50.922;11.880;2022-08-01T15:09:00;1.70;;;1.60;;
32625;SDS011;19038;50.922;11.880;2022-08-01T15:13:59;1.50;;;1.40;;
32625;SDS011;19038;50.922;11.880;2022-08-01T15:18:59;1.67;;;1.37;;
32625;SDS011;19038;50.922;11.880;2022-08-01T15:23:59;1.93;;;1.63;;
32625;SDS011;19038;50.922;11.880;2022-08-01T15:28:59;1.37;;;1.27;;
32625;SDS011;19038;50.922;11.880;2022-08-01T15:33:59;2.93;;;1.33;;
32625;SDS011;19038;50.922;11.880;2022-08-01T15:38:59;1.20;;;1.10;;
32625;SDS011;19038;50.922;11.880;2022-08-01T15:43:59;1.20;;;1.10;;
32625;SDS011;19038;50.922;11.880;2022-08-01T15:49:03;1.30;;;1.10;;
32625;SDS011;19038;50.922;11.880;2022-08-01T15:53:59;1.73;;;1.13;;
32625;SDS011;19038;50.922;11.880;2022-08-01T15:58:59;1.77;;;1.30;;
32625;SDS011;19038;50.922;11.880;2022-08-01T16:03:59;0.90;;;0.90;;
32625;SDS011;19038;50.922;11.880;2022-08-01T16:08:59;1.27;;;1.17;;
32625;SDS011;19038;50.922;11.880;2022-08-01T16:14:00;1.53;;;1.00;;
32625;SDS011;19038;50.922;11.880;2022-08-01T16:18:59;1.27;;;1.17;;
32625;SDS011;19038;50.922;11.880;2022-08-01T16:23:59;1.57;;;1.47;;
32625;SDS011;19038;50.922;11.880;2022-08-01T16:28:59;1.63;;;1.40;;
32625;SDS011;19038;50.922;11.880;2022-08-01T16:33:59;1.60;;;1.50;;
32625;SDS011;19038;50.922;11.880;2022-08-01T16:38:59;1.83;;;1.60;;
32625;SDS011;19038;50.922;11.880;2022-08-01T16:43:59;1.87;;;1.77;;
32625;SDS011;19038;50.922;11.880;2022-08-01T16:48:59;2.20;;;1.80;;
32625;SDS011;19038;50.922;11.880;2022-08-01T16:53:59;2.33;;;2.13;;
32625;SDS011;19038;50.922;11.880;2022-08-01T16:58:59;1.70;;;1.60;;
32625;SDS011;19038;50.922;11.880;2022-08-01T17:03:59;2.53;;;1.30;;
32625;SDS011;19038;50.922;11.880;2022-08-01T17:08:59;1.53;;;1.43;;
32625;SDS011;19038;50.922;11.880;2022-08-01T17:13:59;1.40;;;1.30;;
32625;SDS011;19038;50.922;11.880;2022-08-01T17:18:59;1.53;;;1.20;;
32625;SDS011;19038;50.922;11.880;2022-08-01T17:23:59;1.40;;;1.30;;
32625;SDS011;19038;50.922;11.880;2022-08-01T17:28:59;1.90;;;1.37;;
32625;SDS011;19038;50.922;11.880;2022-08-01T17:33:59;1.90;;;1.30;;
32625;SDS011;19038;50.922;11.880;2022-08-01T17:38:59;1.67;;;1.30;;
32625;SDS011;19038;50.922;11.880;2022-08-01T17:43:59;1.13;;;1.07;;
32625;SDS011;19038;50.922;11.880;2022-08-01T17:48:59;1.40;;;1.30;;
32625;SDS011;19038;50.922;11.880;2022-08-01T17:53:59;1.60;;;1.50;;
32625;SDS011;19038;50.922;11.880;2022-08-01T17:58:59;2.23;;;2.13;;
32625;SDS011;19038;50.922;11.880;2022-08-01T18:04:00;2.17;;;2.00;;
32625;SDS011;19038;50.922;11.880;2022-08-01T18:08:59;2.20;;;2.10;;
32625;SDS011;19038;50.922;11.880;2022-08-01T18:14:00;2.33;;;2.23;;
32625;SDS011;19038;50.922;11.880;2022-08-01T18:18:59;2.33;;;2.23;;
32625;SDS011;19038;50.922;11.880;2022-08-01T18:24:00;1.93;;;1.83;;
32625;SDS011;19038;50.922;11.880;2022-08-01T18:28:59;2.30;;;2.10;;
32625;SDS011;19038;50.922;11.880;2022-08-01T18:33:59;2.00;;;1.87;;
32625;SDS011;19038;50.922;11.880;2022-08-01T18:39:00;2.60;;;2.10;;
32625;SDS011;19038;50.922;11.880;2022-08-01T18:44:00;2.50;;;2.30;;
32625;SDS011;19038;50.922;11.880;2022-08-01T18:48:59;2.20;;;2.10;;
32625;SDS011;19038;50.922;11.880;2022-08-01T18:53:59;2.30;;;2.10;;
32625;SDS011;19038;50.922;11.880;2022-08-01T18:58:59;2.43;;;2.13;;
32625;SDS011;19038;50.922;11.880;2022-08-01T19:04:00;2.43;;;2.33;;
32625;SDS011;19038;50.922;11.880;2022-08-01T19:08:59;2.90;;;2.20;;
32625;SDS011;19038;50.922;11.880;2022-08-01T19:13:59;2.30;;;2.10;;
32625;SDS011;19038;50.922;11.880;2022-08-01T19:19:02;2.33;;;2.13;;
32625;SDS011;19038;50.922;11.880;2022-08-01T19:23:59;2.53;;;2.43;;
32625;SDS011;19038;50.922;11.880;2022-08-01T19:29:00;2.70;;;2.50;;
32625;SDS011;19038;50.922;11.880;2022-08-01T19:33:59;3.00;;;2.80;;
32625;SDS011;19038;50.922;11.880;2022-08-01T19:39:00;3.40;;;3.20;;
32625;SDS011;19038;50.922;11.880;2022-08-01T19:43:59;3.50;;;3.30;;
32625;SDS011;19038;50.922;11.880;2022-08-01T19:48:59;3.70;;;3.40;;
32625;SDS011;19038;50.922;11.880;2022-08-01T19:54:02;3.87;;;3.57;;
32625;SDS011;19038;50.922;11.880;2022-08-01T20:04:00;3.57;;;3.37;;
32625;SDS011;19038;50.922;11.880;2022-08-01T20:09:00;3.93;;;3.63;;
32625;SDS011;19038;50.922;11.880;2022-08-01T20:13:59;3.33;;;3.13;;
32625;SDS011;19038;50.922;11.880;2022-08-01T20:18:59;4.00;;;3.70;;
32625;SDS011;19038;50.922;11.880;2022-08-01T20:24:00;3.90;;;3.50;;
32625;SDS011;19038;50.922;11.880;2022-08-01T20:28:59;4.57;;;4.00;;
32625;SDS011;19038;50.922;11.880;2022-08-01T20:34:00;4.23;;;3.83;;
32625;SDS011;19038;50.922;11.880;2022-08-01T20:38:59;3.47;;;3.27;;
32625;SDS011;19038;50.922;11.880;2022-08-01T20:43:59;4.00;;;3.80;;
32625;SDS011;19038;50.922;11.880;2022-08-01T20:48:59;4.07;;;3.77;;
32625;SDS011;19038;50.922;11.880;2022-08-01T20:53:59;4.07;;;3.77;;
32625;SDS011;19038;50.922;11.880;2022-08-01T20:59:04;3.90;;;3.60;;
32625;SDS011;19038;50.922;11.880;2022-08-01T21:04:03;3.70;;;3.40;;
32625;SDS011;19038;50.922;11.880;2022-08-01T21:08:59;3.93;;;3.60;;
32625;SDS011;19038;50.922;11.880;2022-08-01T21:13:59;3.93;;;3.43;;
32625;SDS011;19038;50.922;11.880;2022-08-01T21:19:01;4.20;;;3.90;;
32625;SDS011;19038;50.922;11.880;2022-08-01T21:29:00;4.17;;;3.87;;
32625;SDS011;19038;50.922;11.880;2022-08-01T21:34:00;3.47;;;3.27;;
32625;SDS011;19038;50.922;11.880;2022-08-01T21:39:00;3.80;;;3.60;;
32625;SDS011;19038;50.922;11.880;2022-08-01T21:44:00;5.17;;;4.77;;
32625;SDS011;19038;50.922;11.880;2022-08-01T21:48:59;4.40;;;4.10;;
32625;SDS011;19038;50.922;11.880;2022-08-01T21:59:03;4.73;;;4.33;;
32625;SDS011;19038;50.922;11.880;2022-08-01T22:04:00;4.50;;;4.20;;
32625;SDS011;19038;50.922;11.880;2022-08-01T22:09:03;4.70;;;4.40;;
32625;SDS011;19038;50.922;11.880;2022-08-01T22:14:00;5.00;;;4.50;;
32625;SDS011;19038;50.922;11.880;2022-08-01T22:19:00;4.43;;;4.03;;
32625;SDS011;19038;50.922;11.880;2022-08-01T22:23:59;4.30;;;4.00;;
32625;SDS011;19038;50.922;11.880;2022-08-01T22:28:59;5.33;;;4.90;;
32625;SDS011;19038;50.922;11.880;2022-08-01T22:33:59;4.60;;;4.20;;
32625;SDS011;19038;50.922;11.880;2022-08-01T22:38:59;7.23;;;3.67;;
32625;SDS011;19038;50.922;11.880;2022-08-01T22:44:02;3.77;;;3.47;;
32625;SDS011;19038;50.922;11.880;2022-08-01T22:49:02;3.53;;;3.23;;
32625;SDS011;19038;50.922;11.880;2022-08-01T22:54:04;3.83;;;3.53;;
32625;SDS011;19038;50.922;11.880;2022-08-01T22:59:01;4.23;;;3.90;;
32625;SDS011;19038;50.922;11.880;2022-08-01T23:03:59;3.90;;;3.60;;
32625;SDS011;19038;50.922;11.880;2022-08-01T23:09:00;4.33;;;3.97;;
32625;SDS011;19038;50.922;11.880;2022-08-01T23:14:00;3.73;;;3.43;;
32625;SDS011;19038;50.922;11.880;2022-08-01T23:19:00;3.93;;;3.57;;
32625;SDS011;19038;50.922;11.880;2022-08-01T23:24:00;4.43;;;4.13;;
32625;SDS011;19038;50.922;11.880;2022-08-01T23:28:59;8.80;;;7.07;;
32625;SDS011;19038;50.922;11.880;2022-08-01T23:33:59;6.57;;;6.00;;
32625;SDS011;19038;50.922;11.880;2022-08-01T23:38:59;5.97;;;5.47;;
32625;SDS011;19038;50.922;11.880;2022-08-01T23:44:00;6.13;;;5.63;;
32625;SDS011;19038;50.922;11.880;2022-08-01T23:49:00;4.40;;;4.10;;
32625;SDS011;19038;50.922;11.880;2022-08-01T23:53:59;5.47;;;4.90;;
32625;SDS011;19038;50.922;11.880;2022-08-01T23:58:59;4.93;;;4.53;;
